Time;durP1;ratioP1;P1;durP2;ratioP2;P2;SDS_P1;SDS_P2;PMS_P1;PMS_P2;Temp;Humidity;BMP_temperature;BMP_pressure;BME280_temperature;BME280_humidity;BME280_pressure;Samples;Min_cycle;Max_cycle;Signal;HPM_P1;HPM_P2
2023/08/30 00:02:50;;;;;;;;;;;;;;;13.07;94.2627;100881.9;;;;-81
2023/08/30 00:07:57;;;;;;;;;;;;;;;13.19;94.63086;100877;;;;-80
2023/08/30 00:12:48;;;;;;;;;;;;;;;13.34;93.7998;100873.6;;;;-80
2023/08/30 00:14:44;;;;;;;8.8;4.7;;;;;;;;;;;;;-82
2023/08/30 00:17:51;;;;;;;;;;;;;;;13.4;94.66309;100865.2;;;;-81
2023/08/30 00:22:46;;;;;;;;;;;;;;;13.46;94.3457;100855.2;;;;-82
2023/08/30 00:27:45;;;;;;;;;;;;;;;13.58;93.71484;100857.4;;;;-80
2023/08/30 00:32:45;;;;;;;;;;;;;;;13.68;92.96094;100847.8;;;;-82
2023/08/30 00:37:51;;;;;;;;;;;;;;;13.77;92.82422;100842.6;;;;-81
2023/08/30 00:42:45;;;;;;;;;;;;;;;13.81;93.39844;100835.4;;;;-81
2023/08/30 00:44:39;;;;;;;9.2;5.7;;;;;;;;;;;;;-79
2023/08/30 00:47:51;;;;;;;;;;;;;;;13.86;94.00977;100838.4;;;;-81
2023/08/30 00:52:52;;;;;;;;;;;;;;;13.91;94.47461;100831.8;;;;-80
2023/08/30 00:57:50;;;;;;;;;;;;;;;13.97;94.33203;100826.3;;;;-80
2023/08/30 01:02:46;;;;;;;;;;;;;;;14.02;93.85352;100822.1;;;;-82
2023/08/30 01:07:51;;;;;;;;;;;;;;;14.09;93.25781;100816.3;;;;-83
2023/08/30 01:12:48;;;;;;;;;;;;;;;14.16;92.61523;100813.8;;;;-80
2023/08/30 01:14:46;;;;;;;10.2;6.5;;;;;;;;;;;;;-80
2023/08/30 01:17:47;;;;;;;;;;;;;;;14.23;92.50879;100807.5;;;;-82
2023/08/30 01:23:06;;;;;;;;;;;;;;;14.29;91.48828;100802.6;;;;-82
2023/08/30 01:27:49;;;;;;;;;;;;;;;14.38;90.22656;100796.6;;;;-81
2023/08/30 01:32:55;;;;;;;;;;;;;;;14.45;89.66309;100796.6;;;;-81
2023/08/30 01:37:50;;;;;;;;;;;;;;;14.5;89.19141;100791.1;;;;-81
2023/08/30 01:42:52;;;;;;;;;;;;;;;14.55;89.58301;100794.8;;;;-82
2023/08/30 01:45:13;;;;;;;;;;;;;;;;;;;;;
2023/08/30 01:47:54;;;;;;;;;;;;;;;14.56;89.47363;100790.1;;;;-82
2023/08/30 01:52:54;;;;;;;;;;;;;;;14.59;89.36816;100786.6;;;;-82
2023/08/30 01:58:02;;;;;;;;;;;;;;;14.6;89.64648;100777.1;;;;-81
2023/08/30 02:03:20;;;;;;;;;;;;;;;14.62;89.85254;100771.1;;;;-81
2023/08/30 02:08:08;;;;;;;;;;;;;;;;;;;;;
2023/08/30 02:12:58;;;;;;;;;;;;;;;14.61;90.2627;100768.4;;;;-81
2023/08/30 02:14:48;;;;;;;11.5;6.7;;;;;;;;;;;;;-81
2023/08/30 02:17:50;;;;;;;;;;;;;;;14.62;90.69824;100760.3;;;;-81
2023/08/30 02:22:48;;;;;;;;;;;;;;;14.62;91.13281;100757.3;;;;-79
2023/08/30 02:28:01;;;;;;;;;;;;;;;14.61;91.63184;100756.7;;;;-81
2023/08/30 02:42:45;;;;;;;;;;;;;;;14.65;92.97461;100738.1;;;;-82
2023/08/30 02:44:50;;;;;;;18.8;7.8;;;;;;;;;;;;;-81
2023/08/30 02:47:53;;;;;;;;;;;;;;;14.69;92.76172;100735.6;;;;-81
2023/08/30 02:52:45;;;;;;;;;;;;;;;14.71;92.26465;100730.7;;;;-83
2023/08/30 02:57:59;;;;;;;;;;;;;;;14.73;91.66895;100715.3;;;;-81
2023/08/30 03:02:47;;;;;;;;;;;;;;;14.75;91.43555;100710.4;;;;-79
2023/08/30 03:12:50;;;;;;;;;;;;;;;14.74;90.95605;100708.3;;;;-80
2023/08/30 03:14:54;;;;;;;15.3;9;;;;;;;;;;;;;-81
2023/08/30 03:17:48;;;;;;;;;;;;;;;14.7;90.78027;100700.8;;;;-80
2023/08/30 03:22:45;;;;;;;;;;;;;;;14.65;90.82617;100692.2;;;;-82
2023/08/30 03:27:51;;;;;;;;;;;;;;;14.67;90.78613;100690.3;;;;-81
2023/08/30 03:32:54;;;;;;;;;;;;;;;14.63;90.86719;100678.5;;;;-81
2023/08/30 03:40:57;;;;;;;;;;;;;;;14.63;91.1582;100669.7;;;;-80
2023/08/30 03:44:56;;;;;;;17.3;10.7;;;;;;;;;;;;;-80
2023/08/30 03:46:05;;;;;;;;;;;;;;;14.63;91.7373;100663.2;;;;-82
2023/08/30 03:50:46;;;;;;;;;;;;;;;14.62;92.10059;100664.5;;;;-80
2023/08/30 03:55:51;;;;;;;;;;;;;;;14.61;92.55566;100664.8;;;;-78
2023/08/30 04:00:45;;;;;;;;;;;;;;;14.52;94.02637;100663.2;;;;-82
2023/08/30 04:05:46;;;;;;;;;;;;;;;14.43;94.77441;100659.1;;;;-80
2023/08/30 04:10:55;;;;;;;;;;;;;;;14.37;94.64063;100653.8;;;;-82
2023/08/30 04:15:16;;;;;;;21.1;10.9;;;;;;;;;;;;;-82
2023/08/30 04:15:47;;;;;;;;;;;;;;;14.32;94.40625;100654.9;;;;-82
2023/08/30 04:20:53;;;;;;;;;;;;;;;14.27;93.90723;100656.9;;;;-81
2023/08/30 04:25:56;;;;;;;;;;;;;;;14.17;94.0957;100654.8;;;;-79
2023/08/30 04:30:50;;;;;;;;;;;;;;;14.14;94.10059;100651.9;;;;-84
2023/08/30 04:40:58;;;;;;;;;;;;;;;14.02;94.66406;100637.4;;;;-80
2023/08/30 04:45:02;;;;;;;20.1;11.7;;;;;;;;;;;;;-82
2023/08/30 04:45:49;;;;;;;;;;;;;;;13.94;95.31445;100631.6;;;;-80
2023/08/30 04:55:33;;;;;;;;;;;;;;;13.92;95.29785;100619.3;;;;-80
2023/08/30 05:00:41;;;;;;;;;;;;;;;13.87;95.65234;100618.5;;;;-82
2023/08/30 05:15:20;;;;;;;16.9;10.5;;;;;;;;;;;;;-82
2023/08/30 05:15:32;;;;;;;;;;;;;;;12.66;94.91406;100452.9;;;;-80
2023/08/30 05:20:14;;;;;;;;;;;;;;;13.7;95.12695;100626.4;;;;-81
2023/08/30 05:25:11;;;;;;;;;;;;;;;13.8;94.60449;100629.5;;;;-82
2023/08/30 05:30:16;;;;;;;;;;;;;;;13.82;94.0332;100620.8;;;;-81
2023/08/30 05:35:18;;;;;;;;;;;;;;;13.93;93.36816;100626.8;;;;-81
2023/08/30 05:40:15;;;;;;;;;;;;;;;14.09;92.32422;100611.5;;;;-81
2023/08/30 05:45:10;;;;;;;18.6;10.6;;;;;;;;;;;;;-81
2023/08/30 05:45:29;;;;;;;;;;;;;;;13.99;92.01465;100578.5;;;;-80
2023/08/30 05:50:31;;;;;;;;;;;;;;;14.28;92.19629;100600.5;;;;-79
2023/08/30 05:55:26;;;;;;;;;;;;;;;14.36;91.44727;100602;;;;-81
2023/08/30 06:00:38;;;;;;;;;;;;;;;14.3;90.78906;100599.3;;;;-81
2023/08/30 06:05:13;;;;;;;;;;;;;;;14.28;91.00586;100590.1;;;;-82
2023/08/30 06:15:18;;;;;;;18.9;10.6;;;;;;;;;;;;;-83
2023/08/30 06:15:44;;;;;;;;;;;;;;;13.74;89.43945;100534.4;;;;-79
2023/08/30 06:20:14;;;;;;;;;;;;;;;14.07;89.33887;100599.4;;;;-80
2023/08/30 06:30:24;;;;;;;;;;;;;;;13.9;94.91699;100596;;;;-83
2023/08/30 06:35:20;;;;;;;;;;;;;;;13.71;99.05371;100592.8;;;;-81
2023/08/30 06:40:13;;;;;;;;;;;;;;;13.55;100;100583;;;;-81
2023/08/30 06:45:09;;;;;;;26.6;13.1;;;;;;;;;;;;;-78
2023/08/30 06:45:20;;;;;;;;;;;;;;;13.16;100;100535.1;;;;-79
2023/08/30 06:50:13;;;;;;;;;;;;;;;13.39;100;100575.3;;;;-78
2023/08/30 06:55:10;;;;;;;;;;;;;;;13.5;100;100566.4;;;;-79
2023/08/30 07:00:11;;;;;;;;;;;;;;;13.54;100;100566.3;;;;-80
2023/08/30 07:05:14;;;;;;;;;;;;;;;13.48;100;100567.2;;;;-80
2023/08/30 07:10:10;;;;;;;;;;;;;;;13.48;100;100563.1;;;;-80
2023/08/30 07:15:22;;;;;;;20.8;11.3;;;;;;;;;;;;;-81
2023/08/30 07:15:32;;;;;;;;;;;;;;;13.33;100;100533.6;;;;-80
2023/08/30 07:20:18;;;;;;;;;;;;;;;13.6;100;100561.4;;;;-81
2023/08/30 07:25:13;;;;;;;;;;;;;;;13.73;100;100553.2;;;;-80
2023/08/30 07:35:14;;;;;;;;;;;;;;;14.03;100;100546.5;;;;-83
2023/08/30 07:40:15;;;;;;;;;;;;;;;14.19;100;100537.9;;;;-80
2023/08/30 07:45:12;;;;;;;;;;;;;;;14.24;100;100537.1;;;;-81
2023/08/30 07:45:23;;;;;;;20.4;11.5;;;;;;;;;;;;;-81
2023/08/30 07:50:14;;;;;;;;;;;;;;;14.25;100;100522.8;;;;-79
2023/08/30 07:55:19;;;;;;;;;;;;;;;14.65;100;100532.5;;;;-80
2023/08/30 08:00:14;;;;;;;;;;;;;;;14.83;100;100539.5;;;;-78
2023/08/30 08:05:16;;;;;;;;;;;;;;;14.97;100;100532;;;;-80
2023/08/30 08:10:13;;;;;;;;;;;;;;;14.86;100;100532;;;;-81
2023/08/30 08:15:13;;;;;;;;;;;;;;;14.81;100;100529.8;;;;-81
2023/08/30 08:15:24;;;;;;;15.3;10;;;;;;;;;;;;;-81
2023/08/30 08:20:14;;;;;;;;;;;;;;;14.76;100;100531.2;;;;-80
2023/08/30 08:25:10;;;;;;;;;;;;;;;14.68;100;100523.6;;;;-79
2023/08/30 08:30:10;;;;;;;;;;;;;;;14.79;100;100520.9;;;;-80
2023/08/30 08:35:18;;;;;;;;;;;;;;;14.71;100;100515.5;;;;-80
2023/08/30 08:40:21;;;;;;;;;;;;;;;14.81;100;100512.3;;;;-78
2023/08/30 08:45:20;;;;;;;;;;;;;;;14.77;100;100511;;;;-82
2023/08/30 08:45:42;;;;;;;13.9;9.1;;;;;;;;;;;;;-82
2023/08/30 08:55:10;;;;;;;;;;;;;;;14.43;100;100505.4;;;;-80
2023/08/30 09:00:17;;;;;;;;;;;;;;;14.26;100;100508.2;;;;-81
2023/08/30 09:05:15;;;;;;;;;;;;;;;14.15;100;100508.6;;;;-79
2023/08/30 09:10:15;;;;;;;;;;;;;;;14.08;100;100508.9;;;;-79
2023/08/30 09:15:17;;;;;;;;;;;;;;;14.02;100;100505.3;;;;-80
2023/08/30 09:28:56;;;;;;;;;;;;;;;14.58;100;100488.9;;;;-79
2023/08/30 09:33:53;;;;;;;;;;;;;;;14.82;100;100487.4;;;;-80
2023/08/30 09:39:00;;;;;;;;;;;;;;;15.03;100;100481.6;;;;-79
2023/08/30 09:43:47;;;;;;;;;;;;;;;15.35;100;100489.1;;;;-78
2023/08/30 09:45:27;;;;;;;5.7;3;;;;;;;;;;;;;-78
2023/08/30 09:48:48;;;;;;;;;;;;;;;15.64;100;100489.4;;;;-80
2023/08/30 09:53:53;;;;;;;;;;;;;;;15.83;96.8916;100494.6;;;;-79
2023/08/30 09:58:57;;;;;;;;;;;;;;;15.99;95.83203;100492.7;;;;-79
2023/08/30 10:03:50;;;;;;;;;;;;;;;16.16;95.16699;100500.2;;;;-79
2023/08/30 10:08:56;;;;;;;;;;;;;;;16.49;93.19336;100501.6;;;;-80
2023/08/30 10:13:49;;;;;;;;;;;;;;;16.94;90.29004;100496.3;;;;-80
2023/08/30 10:18:24;;;;;;;;;;;;;;;17.16;88.97852;100496.2;;;;-82
2023/08/30 10:44:45;;;;;;;;;;;;;;;;;;;;;
2023/08/30 10:48:15;;;;;;;;;;;;;;;18.93;68.78613;100514.4;;;;-81
2023/08/30 10:53:09;;;;;;;;;;;;;;;19.01;70.42871;100520.8;;;;-81
2023/08/30 10:58:18;;;;;;;;;;;;;;;19.09;69.07227;100512.1;;;;-78
2023/08/30 11:08:17;;;;;;;;;;;;;;;19.13;68.52344;100520;;;;-82
2023/08/30 11:13:15;;;;;;;;;;;;;;;19.15;66.47656;100521.3;;;;-83
2023/08/30 11:15:55;;;;;;;8.4;1.7;;;;;;;;;;;;;-84
2023/08/30 11:23:13;;;;;;;;;;;;;;;19.43;64.05664;100517.5;;;;-82
2023/08/30 11:28:25;;;;;;;;;;;;;;;19.81;63.90723;100522.6;;;;-82
2023/08/30 11:33:11;;;;;;;;;;;;;;;19.62;63.49316;100531.9;;;;-84
2023/08/30 11:38:17;;;;;;;;;;;;;;;19.04;64.4873;100533;;;;-82
2023/08/30 11:43:08;;;;;;;;;;;;;;;19.84;65.21777;100537.5;;;;-81
2023/08/30 11:45:53;;;;;;;7.9;1.8;;;;;;;;;;;;;-84
2023/08/30 11:51:53;;;;;;;;;;;;;;;20.42;60.1709;100543.6;;;;-82
2023/08/30 11:56:45;;;;;;;;;;;;;;;19.82;59.47656;100539.6;;;;-82
2023/08/30 12:01:45;;;;;;;;;;;;;;;20.2;61.05176;100540.7;;;;-81
2023/08/30 12:11:48;;;;;;;;;;;;;;;21.04;54.08203;100537.9;;;;-80
2023/08/30 12:15:38;;;;;;;7;1.1;;;;;;;;;;;;;-81
2023/08/30 12:17:03;;;;;;;;;;;;;;;21.07;56.01563;100541.6;;;;-81
2023/08/30 12:22:12;;;;;;;;;;;;;;;20.7;52.69336;100547.8;;;;-81
2023/08/30 12:27:03;;;;;;;;;;;;;;;20.59;54.95117;100552.5;;;;-82
2023/08/30 12:31:48;;;;;;;;;;;;;;;20.56;55.29004;100550.9;;;;-82
2023/08/30 12:46:48;;;;;;;;;;;;;;;21.3;54.1582;100554.7;;;;-83
2023/08/30 12:52:00;;;;;;;;;;;;;;;20.57;54.51563;100559.2;;;;-81
2023/08/30 12:57:07;;;;;;;;;;;;;;;;;;;;;
2023/08/30 13:02:15;;;;;;;;;;;;;;;19.85;57.39844;100574.5;;;;-83
2023/08/30 13:22:12;;;;;;;;;;;;;;;;;;;;;
2023/08/30 13:26:41;;;;;;;;;;;;;;;15.69;97.42969;100641.5;;;;-77
2023/08/30 13:31:27;;;;;;;;;;;;;;;15.57;94.90625;100648.7;;;;-79
2023/08/30 13:36:28;;;;;;;;;;;;;;;15.5;96.0957;100643.1;;;;-77
2023/08/30 13:41:27;;;;;;;;;;;;;;;15.55;95.39258;100643.8;;;;-78
2023/08/30 13:45:48;;;;;;;5.5;1.3;;;;;;;;;;;;;-76
2023/08/30 13:46:32;;;;;;;;;;;;;;;15.47;96.2998;100644.5;;;;-78
2023/08/30 13:51:38;;;;;;;;;;;;;;;15.23;95.30176;100648.3;;;;-78
2023/08/30 13:56:26;;;;;;;;;;;;;;;15.22;97.67969;100647.3;;;;-78
2023/08/30 14:01:32;;;;;;;;;;;;;;;15.53;97.94141;100641.4;;;;-77
2023/08/30 14:06:26;;;;;;;;;;;;;;;15.66;98.88184;100641.9;;;;-78
2023/08/30 14:11:28;;;;;;;;;;;;;;;15.91;98.72559;100640.3;;;;-78
2023/08/30 14:15:49;;;;;;;7.1;1.8;;;;;;;;;;;;;-79
2023/08/30 14:16:26;;;;;;;;;;;;;;;16.63;100;100634.5;;;;-78
2023/08/30 14:26:35;;;;;;;;;;;;;;;17.12;86.31348;100639;;;;-78
2023/08/30 14:31:37;;;;;;;;;;;;;;;16.92;86.50098;100638.8;;;;-79
2023/08/30 14:41:28;;;;;;;;;;;;;;;17.2;80.75293;100632.1;;;;-81
2023/08/30 14:45:51;;;;;;;5;1.6;;;;;;;;;;;;;-79
2023/08/30 14:46:26;;;;;;;;;;;;;;;16.8;77.08691;100642.2;;;;-76
2023/08/30 15:01:37;;;;;;;;;;;;;;;16.47;74.60156;100653;;;;-79
2023/08/30 15:06:28;;;;;;;;;;;;;;;16.82;75.04492;100650.6;;;;-76
2023/08/30 15:11:40;;;;;;;;;;;;;;;16.89;73.70605;100651.3;;;;-79
2023/08/30 15:15:55;;;;;;;5.4;1.3;;;;;;;;;;;;;-83
2023/08/30 15:16:40;;;;;;;;;;;;;;;17.06;74.74707;100658;;;;-80
2023/08/30 15:21:42;;;;;;;;;;;;;;;17.45;70.26172;100656.4;;;;-83
2023/08/30 15:26:34;;;;;;;;;;;;;;;17.91;72.12793;100649.2;;;;-81
2023/08/30 15:31:29;;;;;;;;;;;;;;;17.89;70.61328;100655.2;;;;-80
2023/08/30 15:36:37;;;;;;;;;;;;;;;17.34;70.8623;100665.4;;;;-81
2023/08/30 15:41:43;;;;;;;;;;;;;;;17.2;70.40137;100659.1;;;;-82
2023/08/30 15:46:13;;;;;;;;;;;;;;;;;;;;;
2023/08/30 15:46:48;;;;;;;;;;;;;;;16.96;68.68555;100609.7;;;;-81
2023/08/30 15:51:33;;;;;;;;;;;;;;;17.37;69.70703;100666.4;;;;-77
2023/08/30 15:56:30;;;;;;;;;;;;;;;17.32;71.69336;100671;;;;-77
2023/08/30 16:01:29;;;;;;;;;;;;;;;17.32;72.49316;100672.3;;;;-78
2023/08/30 16:06:28;;;;;;;;;;;;;;;17.35;72.08301;100673.2;;;;-78
2023/08/30 16:11:32;;;;;;;;;;;;;;;17.4;72.4502;100673.3;;;;-80
2023/08/30 16:16:00;;;;;;;6.8;1.2;;;;;;;;;;;;;-77
2023/08/30 16:16:34;;;;;;;;;;;;;;;17.33;72.56445;100675.2;;;;-78
2023/08/30 16:21:33;;;;;;;;;;;;;;;17.32;71.83008;100684.9;;;;-78
2023/08/30 16:26:27;;;;;;;;;;;;;;;17.24;69.39258;100685.9;;;;-77
2023/08/30 16:31:32;;;;;;;;;;;;;;;17.4;71.38184;100691;;;;-79
2023/08/30 16:36:32;;;;;;;;;;;;;;;17.57;68.54199;100698;;;;-79
2023/08/30 16:41:28;;;;;;;;;;;;;;;17.61;67.91699;100691.7;;;;-78
2023/08/30 16:46:06;;;;;;;6.5;1;;;;;;;;;;;;;-79
2023/08/30 16:46:36;;;;;;;;;;;;;;;17.23;69.14551;100651.8;;;;-79
2023/08/30 16:51:36;;;;;;;;;;;;;;;17.36;69.39063;100686.5;;;;-80
2023/08/30 16:56:26;;;;;;;;;;;;;;;17.32;70.91602;100682.1;;;;-79
2023/08/30 17:01:26;;;;;;;;;;;;;;;17.23;70.82422;100682.4;;;;-77
2023/08/30 17:06:30;;;;;;;;;;;;;;;17.05;69.52344;100690.1;;;;-80
2023/08/30 17:11:32;;;;;;;;;;;;;;;16.98;72.33887;100692.7;;;;-77
2023/08/30 17:16:07;;;;;;;3.5;1;;;;;;;;;;;;;-80
2023/08/30 17:16:29;;;;;;;;;;;;;;;16.86;70.78711;100696.1;;;;-79
2023/08/30 17:21:29;;;;;;;;;;;;;;;16.74;70.38379;100701.2;;;;-78
2023/08/30 17:26:26;;;;;;;;;;;;;;;16.61;72.1543;100700.8;;;;-77
2023/08/30 17:31:28;;;;;;;;;;;;;;;16.39;71.88086;100702.4;;;;-79
2023/08/30 17:36:27;;;;;;;;;;;;;;;16.21;71.70508;100709.1;;;;-79
2023/08/30 17:41:27;;;;;;;;;;;;;;;16.04;72.36426;100707.1;;;;-77
2023/08/30 17:46:08;;;;;;;4.3;1.1;;;;;;;;;;;;;-78
2023/08/30 17:46:28;;;;;;;;;;;;;;;15.86;72.31152;100708.5;;;;-78
2023/08/30 17:51:28;;;;;;;;;;;;;;;15.69;73.0127;100709.1;;;;-78
2023/08/30 17:56:29;;;;;;;;;;;;;;;15.47;73.89648;100705;;;;-77
2023/08/30 18:01:30;;;;;;;;;;;;;;;15.35;75.06445;100710;;;;-78
2023/08/30 18:06:26;;;;;;;;;;;;;;;15.22;75.9707;100717.5;;;;-78
2023/08/30 18:11:31;;;;;;;;;;;;;;;15.14;77.22266;100719.4;;;;-81
2023/08/30 18:16:16;;;;;;;4.3;1;;;;;;;;;;;;;-77
2023/08/30 18:16:30;;;;;;;;;;;;;;;15.03;78.08789;100720.4;;;;-78
2023/08/30 18:21:25;;;;;;;;;;;;;;;15.09;77.80859;100724.5;;;;-78
2023/08/30 18:26:29;;;;;;;;;;;;;;;15.15;78.88086;100732;;;;-78
2023/08/30 18:31:28;;;;;;;;;;;;;;;15.2;77.74902;100733.9;;;;-77
2023/08/30 18:36:27;;;;;;;;;;;;;;;15.08;77.99512;100732.7;;;;-78
2023/08/30 18:41:29;;;;;;;;;;;;;;;14.89;78.57813;100741.8;;;;-77
2023/08/30 18:46:15;;;;;;;4.2;1.1;;;;;;;;;;;;;-78
2023/08/30 18:46:29;;;;;;;;;;;;;;;14.67;78.41504;100745.5;;;;-79
2023/08/30 18:51:27;;;;;;;;;;;;;;;14.49;78.63965;100745.5;;;;-78
2023/08/30 18:56:26;;;;;;;;;;;;;;;14.28;78.77148;100751.3;;;;-79
2023/08/30 19:01:30;;;;;;;;;;;;;;;14.15;78.92676;100755.4;;;;-78
2023/08/30 19:06:26;;;;;;;;;;;;;;;14.06;79.18848;100762.3;;;;-78
2023/08/30 19:11:36;;;;;;;;;;;;;;;13.96;79.25977;100768.7;;;;-78
2023/08/30 19:16:19;;;;;;;4.6;0.8;;;;;;;;;;;;;-79
2023/08/30 19:16:35;;;;;;;;;;;;;;;13.69;79.42383;100750;;;;-77
2023/08/30 19:21:29;;;;;;;;;;;;;;;13.67;79.61035;100772.1;;;;-79
2023/08/30 19:26:29;;;;;;;;;;;;;;;13.55;80.02148;100777.1;;;;-77
2023/08/30 19:31:37;;;;;;;;;;;;;;;13.47;80.37598;100782.2;;;;-78
2023/08/30 19:36:27;;;;;;;;;;;;;;;13.41;80.19531;100779.7;;;;-77
2023/08/30 19:41:30;;;;;;;;;;;;;;;13.39;79.88184;100782.6;;;;-78
2023/08/30 19:46:20;;;;;;;4.4;1;;;;;;;;;;;;;-80
2023/08/30 19:46:37;;;;;;;;;;;;;;;13.3;79.69824;100773.1;;;;-80
2023/08/30 19:51:27;;;;;;;;;;;;;;;13.37;79.47754;100790;;;;-77
2023/08/30 19:56:26;;;;;;;;;;;;;;;13.45;79.50195;100791.4;;;;-77
2023/08/30 20:01:26;;;;;;;;;;;;;;;13.5;79.59961;100788.6;;;;-79
2023/08/30 20:06:27;;;;;;;;;;;;;;;13.49;79.90918;100790.8;;;;-77
2023/08/30 20:16:31;;;;;;;6.7;1.4;;;;;;;;;;;;;-79
2023/08/30 20:16:59;;;;;;;;;;;;;;;13.02;79.89258;100713.5;;;;-79
2023/08/30 20:21:27;;;;;;;;;;;;;;;13.4;79.41602;100790.6;;;;-78
2023/08/30 20:26:32;;;;;;;;;;;;;;;13.23;80.20801;100790.4;;;;-78
2023/08/30 20:31:40;;;;;;;;;;;;;;;13.02;81.08301;100786.4;;;;-77
2023/08/30 20:36:26;;;;;;;;;;;;;;;12.9;81.81738;100787.3;;;;-77
2023/08/30 20:41:26;;;;;;;;;;;;;;;12.79;82.08594;100794.5;;;;-79
2023/08/30 20:51:26;;;;;;;;;;;;;;;12.56;82.80762;100798.8;;;;-77
2023/08/30 20:56:25;;;;;;;;;;;;;;;12.48;83.14844;100803.6;;;;-79
2023/08/30 21:01:26;;;;;;;;;;;;;;;12.41;83.60254;100801;;;;-78
2023/08/30 21:06:27;;;;;;;;;;;;;;;12.34;83.77832;100800.5;;;;-78
2023/08/30 21:11:24;;;;;;;;;;;;;;;12.28;84.3877;100801.8;;;;-78
2023/08/30 21:16:22;;;;;;;;;;;;;;;12.18;86.5752;100793.7;;;;-78
2023/08/30 21:16:34;;;;;;;5.9;1.4;;;;;;;;;;;;;-78
2023/08/30 21:21:24;;;;;;;;;;;;;;;12.1;87.90039;100795.1;;;;-78
2023/08/30 21:26:41;;;;;;;;;;;;;;;12.06;89.14453;100793.2;;;;-79
2023/08/30 21:31:22;;;;;;;;;;;;;;;11.95;90.60547;100805;;;;-79
2023/08/30 21:41:25;;;;;;;;;;;;;;;11.72;90.1377;100797.2;;;;-79
2023/08/30 21:46:28;;;;;;;;;;;;;;;11.69;90.80566;100805.6;;;;-79
2023/08/30 21:46:45;;;;;;;6.1;1.3;;;;;;;;;;;;;-79
2023/08/30 21:51:27;;;;;;;;;;;;;;;11.63;90.66113;100807.2;;;;-80
2023/08/30 21:56:33;;;;;;;;;;;;;;;11.64;89.99805;100796.3;;;;-79
2023/08/30 22:01:33;;;;;;;;;;;;;;;11.74;89.2793;100795.4;;;;-78
2023/08/30 22:06:24;;;;;;;;;;;;;;;11.74;89.25488;100796;;;;-79
2023/08/30 22:11:30;;;;;;;;;;;;;;;11.78;89.82813;100807;;;;-79
2023/08/30 22:16:39;;;;;;;;;;;;;;;11.92;89.59277;100819.1;;;;-79
2023/08/30 22:17:17;;;;;;;5.7;1.1;;;;;;;;;;;;;-79
2023/08/30 22:21:36;;;;;;;;;;;;;;;12.18;92.99609;100814.7;;;;-80
2023/08/30 22:26:25;;;;;;;;;;;;;;;12.24;93.97461;100813.8;;;;-78
2023/08/30 22:31:33;;;;;;;;;;;;;;;12.34;93.86133;100808.6;;;;-80
2023/08/30 22:36:29;;;;;;;;;;;;;;;12.43;94.41211;100798.1;;;;-80
2023/08/30 22:46:27;;;;;;;;;;;;;;;12.44;96.48242;100784.7;;;;-79
2023/08/30 22:47:00;;;;;;;5;1;;;;;;;;;;;;;-79
2023/08/30 22:51:36;;;;;;;;;;;;;;;12.46;96.1875;100780.7;;;;-81
2023/08/30 22:56:46;;;;;;;;;;;;;;;12.48;95.4834;100773.1;;;;-79
2023/08/30 23:01:24;;;;;;;;;;;;;;;12.5;94.29492;100774.9;;;;-80
2023/08/30 23:06:22;;;;;;;;;;;;;;;12.5;94.2832;100775.2;;;;-81
2023/08/30 23:11:32;;;;;;;;;;;;;;;12.48;95.12988;100780.3;;;;-80
2023/08/30 23:16:20;;;;;;;;;;;;;;;12.47;95.46191;100780.1;;;;-79
2023/08/30 23:16:47;;;;;;;3.4;1.1;;;;;;;;;;;;;-79
2023/08/30 23:21:39;;;;;;;;;;;;;;;12.51;96.05566;100782.9;;;;-79
2023/08/30 23:26:23;;;;;;;;;;;;;;;12.57;96.1582;100793.5;;;;-79
2023/08/30 23:31:41;;;;;;;;;;;;;;;12.52;98.73535;100812.6;;;;-78
2023/08/30 23:36:29;;;;;;;;;;;;;;;12.53;97.23242;100827.5;;;;-79
2023/08/30 23:41:26;;;;;;;;;;;;;;;12.59;95.75293;100819.2;;;;-78
2023/08/30 23:46:37;;;;;;;;;;;;;;;12.53;96.60156;100812.4;;;;-81
2023/08/30 23:51:22;;;;;;;;;;;;;;;12.25;100;100842.7;;;;-77
2023/08/30 23:56:27;;;;;;;;;;;;;;;11.9;100;100829.6;;;;-78
